sensor_id;sensor_type;location;lat;lon;timestamp;P1;durP1;ratioP1;P2;durP2;ratioP2
2408;SDS011;8463;48.094;7.970;2023-07-08T00:00:30;4.83;;;3.57;;
2408;SDS011;8463;48.094;7.970;2023-07-08T00:02:58;3.73;;;3.30;;
2408;SDS011;8463;48.094;7.970;2023-07-08T00:05:24;5.77;;;3.60;;
2408;SDS011;8463;48.094;7.970;2023-07-08T00:07:55;5.13;;;3.20;;
2408;SDS011;8463;48.094;7.970;2023-07-08T00:10:22;3.53;;;2.80;;
2408;SDS011;8463;48.094;7.970;2023-07-08T00:12:50;4.60;;;3.20;;
2408;SDS011;8463;48.094;7.970;2023-07-08T00:15:18;4.70;;;3.27;;
2408;SDS011;8463;48.094;7.970;2023-07-08T00:17:46;5.00;;;4.30;;
2408;SDS011;8463;48.094;7.970;2023-07-08T00:22:57;7.80;;;4.47;;
2408;SDS011;8463;48.094;7.970;2023-07-08T00:25:27;4.23;;;2.87;;
2408;SDS011;8463;48.094;7.970;2023-07-08T00:27:54;10.83;;;4.73;;
2408;SDS011;8463;48.094;7.970;2023-07-08T00:30:21;3.53;;;2.83;;
2408;SDS011;8463;48.094;7.970;2023-07-08T00:32:51;4.80;;;3.40;;
2408;SDS011;8463;48.094;7.970;2023-07-08T00:35:26;3.90;;;2.90;;
2408;SDS011;8463;48.094;7.970;2023-07-08T00:37:59;6.03;;;2.97;;
2408;SDS011;8463;48.094;7.970;2023-07-08T00:40:29;5.80;;;3.37;;
2408;SDS011;8463;48.094;7.970;2023-07-08T00:42:57;4.57;;;2.80;;
2408;SDS011;8463;48.094;7.970;2023-07-08T00:48:24;6.33;;;2.93;;
2408;SDS011;8463;48.094;7.970;2023-07-08T00:50:53;5.37;;;4.03;;
2408;SDS011;8463;48.094;7.970;2023-07-08T00:53:28;8.73;;;3.67;;
2408;SDS011;8463;48.094;7.970;2023-07-08T00:55:55;4.30;;;3.17;;
2408;SDS011;8463;48.094;7.970;2023-07-08T00:58:29;5.73;;;3.37;;
2408;SDS011;8463;48.094;7.970;2023-07-08T01:01:05;5.30;;;3.47;;
2408;SDS011;8463;48.094;7.970;2023-07-08T01:03:37;5.03;;;3.77;;
2408;SDS011;8463;48.094;7.970;2023-07-08T01:06:35;4.87;;;3.50;;
2408;SDS011;8463;48.094;7.970;2023-07-08T01:09:04;5.67;;;3.63;;
2408;SDS011;8463;48.094;7.970;2023-07-08T01:11:32;4.43;;;3.90;;
2408;SDS011;8463;48.094;7.970;2023-07-08T01:13:59;5.20;;;3.97;;
2408;SDS011;8463;48.094;7.970;2023-07-08T01:16:29;7.13;;;3.53;;
2408;SDS011;8463;48.094;7.970;2023-07-08T01:18:58;5.20;;;3.47;;
2408;SDS011;8463;48.094;7.970;2023-07-08T01:23:59;5.97;;;3.83;;
2408;SDS011;8463;48.094;7.970;2023-07-08T01:26:27;3.87;;;3.33;;
2408;SDS011;8463;48.094;7.970;2023-07-08T01:28:55;6.23;;;3.53;;
2408;SDS011;8463;48.094;7.970;2023-07-08T01:31:23;5.30;;;3.50;;
2408;SDS011;8463;48.094;7.970;2023-07-08T01:33:49;5.13;;;3.57;;
2408;SDS011;8463;48.094;7.970;2023-07-08T01:36:19;4.60;;;3.60;;
2408;SDS011;8463;48.094;7.970;2023-07-08T01:38:50;6.00;;;4.10;;
2408;SDS011;8463;48.094;7.970;2023-07-08T01:41:16;4.13;;;3.50;;
2408;SDS011;8463;48.094;7.970;2023-07-08T01:43:47;4.57;;;3.37;;
2408;SDS011;8463;48.094;7.970;2023-07-08T01:46:24;5.50;;;3.50;;
2408;SDS011;8463;48.094;7.970;2023-07-08T01:48:54;5.50;;;3.67;;
2408;SDS011;8463;48.094;7.970;2023-07-08T01:51:22;6.17;;;4.17;;
2408;SDS011;8463;48.094;7.970;2023-07-08T01:53:50;6.80;;;3.70;;
2408;SDS011;8463;48.094;7.970;2023-07-08T01:56:16;4.63;;;3.80;;
2408;SDS011;8463;48.094;7.970;2023-07-08T01:58:42;6.97;;;3.43;;
2408;SDS011;8463;48.094;7.970;2023-07-08T02:01:08;5.03;;;3.33;;
2408;SDS011;8463;48.094;7.970;2023-07-08T02:03:34;5.93;;;3.90;;
2408;SDS011;8463;48.094;7.970;2023-07-08T02:06:00;4.90;;;3.40;;
2408;SDS011;8463;48.094;7.970;2023-07-08T02:08:27;3.60;;;2.90;;
2408;SDS011;8463;48.094;7.970;2023-07-08T02:10:53;6.50;;;3.67;;
2408;SDS011;8463;48.094;7.970;2023-07-08T02:13:21;4.83;;;3.53;;
2408;SDS011;8463;48.094;7.970;2023-07-08T02:15:48;4.53;;;3.47;;
2408;SDS011;8463;48.094;7.970;2023-07-08T02:18:14;5.00;;;4.47;;
2408;SDS011;8463;48.094;7.970;2023-07-08T02:20:40;7.93;;;4.63;;
2408;SDS011;8463;48.094;7.970;2023-07-08T02:23:07;5.87;;;4.40;;
2408;SDS011;8463;48.094;7.970;2023-07-08T02:25:35;4.10;;;3.20;;
2408;SDS011;8463;48.094;7.970;2023-07-08T02:28:02;6.63;;;4.03;;
2408;SDS011;8463;48.094;7.970;2023-07-08T02:30:31;4.87;;;3.33;;
2408;SDS011;8463;48.094;7.970;2023-07-08T02:32:59;4.90;;;3.70;;
2408;SDS011;8463;48.094;7.970;2023-07-08T02:35:25;4.57;;;3.90;;
2408;SDS011;8463;48.094;7.970;2023-07-08T02:37:57;5.50;;;3.63;;
2408;SDS011;8463;48.094;7.970;2023-07-08T02:40:23;7.43;;;3.50;;
2408;SDS011;8463;48.094;7.970;2023-07-08T02:42:50;4.53;;;3.77;;
2408;SDS011;8463;48.094;7.970;2023-07-08T02:45:21;7.07;;;3.90;;
2408;SDS011;8463;48.094;7.970;2023-07-08T02:47:47;8.23;;;4.67;;
2408;SDS011;8463;48.094;7.970;2023-07-08T02:50:13;7.50;;;5.30;;
2408;SDS011;8463;48.094;7.970;2023-07-08T02:52:38;5.27;;;4.37;;
2408;SDS011;8463;48.094;7.970;2023-07-08T02:55:04;7.17;;;3.97;;
2408;SDS011;8463;48.094;7.970;2023-07-08T02:57:32;4.93;;;4.40;;
2408;SDS011;8463;48.094;7.970;2023-07-08T02:59:58;5.37;;;3.60;;
2408;SDS011;8463;48.094;7.970;2023-07-08T03:02:24;7.50;;;4.70;;
2408;SDS011;8463;48.094;7.970;2023-07-08T03:04:51;7.00;;;4.63;;
2408;SDS011;8463;48.094;7.970;2023-07-08T03:07:19;5.47;;;4.23;;
2408;SDS011;8463;48.094;7.970;2023-07-08T03:09:45;4.37;;;3.97;;
2408;SDS011;8463;48.094;7.970;2023-07-08T03:12:11;8.23;;;4.10;;
2408;SDS011;8463;48.094;7.970;2023-07-08T03:14:37;6.93;;;4.00;;
2408;SDS011;8463;48.094;7.970;2023-07-08T03:17:07;4.33;;;3.70;;
2408;SDS011;8463;48.094;7.970;2023-07-08T03:19:33;10.13;;;3.90;;
2408;SDS011;8463;48.094;7.970;2023-07-08T03:21:59;6.40;;;4.40;;
2408;SDS011;8463;48.094;7.970;2023-07-08T03:24:33;6.80;;;4.43;;
2408;SDS011;8463;48.094;7.970;2023-07-08T03:27:00;7.60;;;4.40;;
2408;SDS011;8463;48.094;7.970;2023-07-08T03:29:30;7.50;;;4.57;;
2408;SDS011;8463;48.094;7.970;2023-07-08T03:31:59;11.53;;;5.50;;
2408;SDS011;8463;48.094;7.970;2023-07-08T03:34:24;8.50;;;4.80;;
2408;SDS011;8463;48.094;7.970;2023-07-08T03:36:50;7.00;;;4.30;;
2408;SDS011;8463;48.094;7.970;2023-07-08T03:39:19;6.13;;;4.23;;
2408;SDS011;8463;48.094;7.970;2023-07-08T03:41:47;6.50;;;4.70;;
2408;SDS011;8463;48.094;7.970;2023-07-08T03:44:13;6.43;;;4.20;;
2408;SDS011;8463;48.094;7.970;2023-07-08T03:46:41;6.87;;;4.13;;
2408;SDS011;8463;48.094;7.970;2023-07-08T03:49:10;5.73;;;4.50;;
2408;SDS011;8463;48.094;7.970;2023-07-08T03:51:42;6.53;;;3.97;;
2408;SDS011;8463;48.094;7.970;2023-07-08T03:54:09;10.60;;;7.37;;
2408;SDS011;8463;48.094;7.970;2023-07-08T03:56:39;8.20;;;4.80;;
2408;SDS011;8463;48.094;7.970;2023-07-08T03:59:05;6.83;;;4.80;;
2408;SDS011;8463;48.094;7.970;2023-07-08T04:01:31;7.77;;;4.50;;
2408;SDS011;8463;48.094;7.970;2023-07-08T04:03:58;6.00;;;4.73;;
2408;SDS011;8463;48.094;7.970;2023-07-08T04:06:24;6.30;;;4.03;;
2408;SDS011;8463;48.094;7.970;2023-07-08T04:08:51;6.43;;;4.43;;
2408;SDS011;8463;48.094;7.970;2023-07-08T04:11:22;5.90;;;4.00;;
2408;SDS011;8463;48.094;7.970;2023-07-08T04:13:49;5.70;;;3.60;;
2408;SDS011;8463;48.094;7.970;2023-07-08T04:16:22;5.67;;;3.33;;
2408;SDS011;8463;48.094;7.970;2023-07-08T04:18:54;6.23;;;3.80;;
2408;SDS011;8463;48.094;7.970;2023-07-08T04:21:27;4.27;;;3.30;;
2408;SDS011;8463;48.094;7.970;2023-07-08T04:23:54;6.37;;;3.23;;
2408;SDS011;8463;48.094;7.970;2023-07-08T04:26:20;4.00;;;3.37;;
2408;SDS011;8463;48.094;7.970;2023-07-08T04:28:53;5.03;;;3.30;;
2408;SDS011;8463;48.094;7.970;2023-07-08T04:31:19;4.23;;;2.90;;
2408;SDS011;8463;48.094;7.970;2023-07-08T04:33:44;5.53;;;2.90;;
2408;SDS011;8463;48.094;7.970;2023-07-08T04:36:13;4.10;;;3.03;;
2408;SDS011;8463;48.094;7.970;2023-07-08T04:38:40;3.50;;;2.43;;
2408;SDS011;8463;48.094;7.970;2023-07-08T04:41:07;3.00;;;2.50;;
2408;SDS011;8463;48.094;7.970;2023-07-08T04:43:33;3.80;;;2.67;;
2408;SDS011;8463;48.094;7.970;2023-07-08T04:45:59;2.63;;;2.33;;
2408;SDS011;8463;48.094;7.970;2023-07-08T04:48:25;2.70;;;2.40;;
2408;SDS011;8463;48.094;7.970;2023-07-08T04:50:51;2.47;;;1.97;;
2408;SDS011;8463;48.094;7.970;2023-07-08T04:53:19;3.73;;;2.30;;
2408;SDS011;8463;48.094;7.970;2023-07-08T04:55:48;3.50;;;2.67;;
2408;SDS011;8463;48.094;7.970;2023-07-08T04:58:20;4.10;;;2.40;;
2408;SDS011;8463;48.094;7.970;2023-07-08T05:00:46;3.30;;;1.93;;
2408;SDS011;8463;48.094;7.970;2023-07-08T05:03:12;3.67;;;2.63;;
2408;SDS011;8463;48.094;7.970;2023-07-08T05:05:37;3.17;;;2.20;;
2408;SDS011;8463;48.094;7.970;2023-07-08T05:08:03;5.43;;;2.70;;
2408;SDS011;8463;48.094;7.970;2023-07-08T05:10:29;4.07;;;2.30;;
2408;SDS011;8463;48.094;7.970;2023-07-08T05:12:56;2.73;;;2.40;;
2408;SDS011;8463;48.094;7.970;2023-07-08T05:15:22;4.93;;;2.50;;
2408;SDS011;8463;48.094;7.970;2023-07-08T05:17:49;3.63;;;2.10;;
2408;SDS011;8463;48.094;7.970;2023-07-08T05:20:18;4.87;;;2.13;;
2408;SDS011;8463;48.094;7.970;2023-07-08T05:22:45;2.87;;;2.07;;
2408;SDS011;8463;48.094;7.970;2023-07-08T05:25:14;2.40;;;2.20;;
2408;SDS011;8463;48.094;7.970;2023-07-08T05:27:47;2.53;;;2.33;;
2408;SDS011;8463;48.094;7.970;2023-07-08T05:30:15;5.13;;;3.20;;
2408;SDS011;8463;48.094;7.970;2023-07-08T05:32:45;2.90;;;1.70;;
2408;SDS011;8463;48.094;7.970;2023-07-08T05:35:13;3.27;;;2.43;;
2408;SDS011;8463;48.094;7.970;2023-07-08T05:37:38;4.47;;;2.10;;
2408;SDS011;8463;48.094;7.970;2023-07-08T05:40:05;2.50;;;2.10;;
2408;SDS011;8463;48.094;7.970;2023-07-08T05:42:35;2.83;;;2.13;;
2408;SDS011;8463;48.094;7.970;2023-07-08T05:45:01;3.10;;;2.10;;
2408;SDS011;8463;48.094;7.970;2023-07-08T05:47:30;3.00;;;2.20;;
2408;SDS011;8463;48.094;7.970;2023-07-08T05:49:57;3.30;;;1.40;;
2408;SDS011;8463;48.094;7.970;2023-07-08T05:52:23;2.70;;;2.20;;
2408;SDS011;8463;48.094;7.970;2023-07-08T05:54:48;1.73;;;1.60;;
2408;SDS011;8463;48.094;7.970;2023-07-08T05:57:14;3.20;;;2.00;;
2408;SDS011;8463;48.094;7.970;2023-07-08T05:59:39;2.30;;;1.90;;
2408;SDS011;8463;48.094;7.970;2023-07-08T06:02:12;2.50;;;1.80;;
2408;SDS011;8463;48.094;7.970;2023-07-08T06:04:39;2.97;;;1.93;;
2408;SDS011;8463;48.094;7.970;2023-07-08T06:07:05;2.87;;;1.60;;
2408;SDS011;8463;48.094;7.970;2023-07-08T06:09:34;3.57;;;1.63;;
2408;SDS011;8463;48.094;7.970;2023-07-08T06:12:00;2.60;;;1.50;;
2408;SDS011;8463;48.094;7.970;2023-07-08T06:14:26;3.90;;;2.13;;
2408;SDS011;8463;48.094;7.970;2023-07-08T06:16:58;2.40;;;1.90;;
2408;SDS011;8463;48.094;7.970;2023-07-08T06:19:24;2.07;;;1.80;;
2408;SDS011;8463;48.094;7.970;2023-07-08T06:21:50;2.03;;;1.57;;
2408;SDS011;8463;48.094;7.970;2023-07-08T06:24:15;3.10;;;1.30;;
2408;SDS011;8463;48.094;7.970;2023-07-08T06:26:41;3.37;;;1.93;;
2408;SDS011;8463;48.094;7.970;2023-07-08T06:29:07;2.40;;;1.70;;
2408;SDS011;8463;48.094;7.970;2023-07-08T06:31:33;3.30;;;1.90;;
2408;SDS011;8463;48.094;7.970;2023-07-08T06:34:04;5.00;;;1.87;;
2408;SDS011;8463;48.094;7.970;2023-07-08T06:36:30;1.53;;;1.40;;
2408;SDS011;8463;48.094;7.970;2023-07-08T06:38:59;3.20;;;1.80;;
2408;SDS011;8463;48.094;7.970;2023-07-08T06:41:24;2.40;;;2.10;;
2408;SDS011;8463;48.094;7.970;2023-07-08T06:43:50;2.73;;;1.93;;
2408;SDS011;8463;48.094;7.970;2023-07-08T06:46:16;3.93;;;2.10;;
2408;SDS011;8463;48.094;7.970;2023-07-08T06:48:43;2.57;;;1.60;;
2408;SDS011;8463;48.094;7.970;2023-07-08T06:51:09;4.60;;;1.50;;
2408;SDS011;8463;48.094;7.970;2023-07-08T06:53:35;3.80;;;1.73;;
2408;SDS011;8463;48.094;7.970;2023-07-08T06:56:04;2.50;;;1.57;;
2408;SDS011;8463;48.094;7.970;2023-07-08T06:58:30;2.10;;;1.60;;
2408;SDS011;8463;48.094;7.970;2023-07-08T07:00:55;3.20;;;1.90;;
2408;SDS011;8463;48.094;7.970;2023-07-08T07:03:21;2.63;;;2.00;;
2408;SDS011;8463;48.094;7.970;2023-07-08T07:05:57;2.50;;;1.80;;
2408;SDS011;8463;48.094;7.970;2023-07-08T07:08:22;1.67;;;1.40;;
2408;SDS011;8463;48.094;7.970;2023-07-08T07:10:51;3.47;;;1.87;;
2408;SDS011;8463;48.094;7.970;2023-07-08T07:13:17;1.93;;;1.40;;
2408;SDS011;8463;48.094;7.970;2023-07-08T07:15:43;6.93;;;1.87;;
2408;SDS011;8463;48.094;7.970;2023-07-08T07:18:09;3.00;;;1.80;;
2408;SDS011;8463;48.094;7.970;2023-07-08T07:20:36;2.20;;;1.40;;
2408;SDS011;8463;48.094;7.970;2023-07-08T07:23:05;3.90;;;2.00;;
2408;SDS011;8463;48.094;7.970;2023-07-08T07:25:31;3.90;;;1.60;;
2408;SDS011;8463;48.094;7.970;2023-07-08T07:27:57;2.20;;;1.60;;
2408;SDS011;8463;48.094;7.970;2023-07-08T07:30:23;3.90;;;1.77;;
2408;SDS011;8463;48.094;7.970;2023-07-08T07:32:49;1.90;;;1.60;;
2408;SDS011;8463;48.094;7.970;2023-07-08T07:35:15;4.07;;;1.97;;
2408;SDS011;8463;48.094;7.970;2023-07-08T07:37:41;2.00;;;1.77;;
2408;SDS011;8463;48.094;7.970;2023-07-08T07:40:09;4.40;;;2.50;;
2408;SDS011;8463;48.094;7.970;2023-07-08T07:42:38;2.60;;;2.40;;
2408;SDS011;8463;48.094;7.970;2023-07-08T07:45:07;2.90;;;2.20;;
2408;SDS011;8463;48.094;7.970;2023-07-08T07:47:34;7.70;;;2.60;;
2408;SDS011;8463;48.094;7.970;2023-07-08T07:50:00;3.33;;;2.23;;
2408;SDS011;8463;48.094;7.970;2023-07-08T07:52:25;2.77;;;2.07;;
2408;SDS011;8463;48.094;7.970;2023-07-08T07:54:51;1.70;;;1.60;;
2408;SDS011;8463;48.094;7.970;2023-07-08T07:57:18;3.37;;;2.07;;
2408;SDS011;8463;48.094;7.970;2023-07-08T07:59:45;4.07;;;1.93;;
2408;SDS011;8463;48.094;7.970;2023-07-08T08:02:14;3.53;;;1.70;;
2408;SDS011;8463;48.094;7.970;2023-07-08T08:04:40;2.70;;;2.07;;
2408;SDS011;8463;48.094;7.970;2023-07-08T08:07:06;2.47;;;1.93;;
2408;SDS011;8463;48.094;7.970;2023-07-08T08:09:35;3.47;;;1.93;;
2408;SDS011;8463;48.094;7.970;2023-07-08T08:12:02;2.23;;;1.80;;
2408;SDS011;8463;48.094;7.970;2023-07-08T08:14:30;2.00;;;1.70;;
2408;SDS011;8463;48.094;7.970;2023-07-08T08:16:56;2.00;;;1.60;;
2408;SDS011;8463;48.094;7.970;2023-07-08T08:19:22;3.07;;;1.80;;
2408;SDS011;8463;48.094;7.970;2023-07-08T08:21:49;2.67;;;1.90;;
2408;SDS011;8463;48.094;7.970;2023-07-08T08:24:22;2.43;;;2.03;;
2408;SDS011;8463;48.094;7.970;2023-07-08T08:26:58;3.00;;;1.70;;
2408;SDS011;8463;48.094;7.970;2023-07-08T08:29:25;2.50;;;1.93;;
2408;SDS011;8463;48.094;7.970;2023-07-08T08:31:53;2.97;;;1.90;;
2408;SDS011;8463;48.094;7.970;2023-07-08T08:34:19;2.57;;;1.57;;
2408;SDS011;8463;48.094;7.970;2023-07-08T08:36:45;1.60;;;1.50;;
2408;SDS011;8463;48.094;7.970;2023-07-08T08:39:11;2.90;;;1.73;;
2408;SDS011;8463;48.094;7.970;2023-07-08T08:41:37;4.60;;;1.73;;
2408;SDS011;8463;48.094;7.970;2023-07-08T08:44:05;2.43;;;2.23;;
2408;SDS011;8463;48.094;7.970;2023-07-08T08:51:50;2.40;;;1.77;;
2408;SDS011;8463;48.094;7.970;2023-07-08T08:54:16;3.90;;;1.60;;
2408;SDS011;8463;48.094;7.970;2023-07-08T08:59:49;2.57;;;1.90;;
2408;SDS011;8463;48.094;7.970;2023-07-08T09:05:26;2.57;;;2.00;;
2408;SDS011;8463;48.094;7.970;2023-07-08T09:08:00;2.63;;;2.43;;
2408;SDS011;8463;48.094;7.970;2023-07-08T09:10:46;2.17;;;1.70;;
2408;SDS011;8463;48.094;7.970;2023-07-08T09:13:35;3.53;;;1.53;;
2408;SDS011;8463;48.094;7.970;2023-07-08T09:16:40;3.30;;;2.77;;
2408;SDS011;8463;48.094;7.970;2023-07-08T09:19:12;2.03;;;1.80;;
2408;SDS011;8463;48.094;7.970;2023-07-08T09:24:16;2.40;;;1.87;;
2408;SDS011;8463;48.094;7.970;2023-07-08T09:26:54;3.70;;;1.83;;
2408;SDS011;8463;48.094;7.970;2023-07-08T09:29:26;3.17;;;2.13;;
2408;SDS011;8463;48.094;7.970;2023-07-08T09:31:54;2.07;;;1.60;;
2408;SDS011;8463;48.094;7.970;2023-07-08T09:34:24;3.13;;;1.67;;
2408;SDS011;8463;48.094;7.970;2023-07-08T09:37:03;3.03;;;1.83;;
2408;SDS011;8463;48.094;7.970;2023-07-08T09:39:49;3.20;;;2.90;;
2408;SDS011;8463;48.094;7.970;2023-07-08T09:42:18;2.43;;;2.17;;
2408;SDS011;8463;48.094;7.970;2023-07-08T09:44:45;4.03;;;2.00;;
2408;SDS011;8463;48.094;7.970;2023-07-08T09:47:22;2.20;;;2.00;;
2408;SDS011;8463;48.094;7.970;2023-07-08T09:49:57;1.93;;;1.30;;
2408;SDS011;8463;48.094;7.970;2023-07-08T09:52:23;1.70;;;1.47;;
2408;SDS011;8463;48.094;7.970;2023-07-08T09:54:49;2.60;;;2.07;;
2408;SDS011;8463;48.094;7.970;2023-07-08T09:57:36;1.80;;;1.33;;
2408;SDS011;8463;48.094;7.970;2023-07-08T10:00:11;2.47;;;1.40;;
2408;SDS011;8463;48.094;7.970;2023-07-08T10:02:58;2.50;;;1.93;;
2408;SDS011;8463;48.094;7.970;2023-07-08T10:05:51;2.00;;;1.57;;
2408;SDS011;8463;48.094;7.970;2023-07-08T10:08:22;1.57;;;1.47;;
2408;SDS011;8463;48.094;7.970;2023-07-08T10:16:59;4.13;;;1.50;;
2408;SDS011;8463;48.094;7.970;2023-07-08T10:19:25;2.30;;;1.63;;
2408;SDS011;8463;48.094;7.970;2023-07-08T10:27:39;2.30;;;1.50;;
2408;SDS011;8463;48.094;7.970;2023-07-08T10:30:30;1.97;;;1.43;;
2408;SDS011;8463;48.094;7.970;2023-07-08T10:44:28;2.83;;;2.00;;
2408;SDS011;8463;48.094;7.970;2023-07-08T10:49:59;2.03;;;1.83;;
2408;SDS011;8463;48.094;7.970;2023-07-08T10:58:20;2.33;;;2.13;;
2408;SDS011;8463;48.094;7.970;2023-07-08T11:00:58;2.77;;;1.60;;
2408;SDS011;8463;48.094;7.970;2023-07-08T11:09:27;1.67;;;1.40;;
2408;SDS011;8463;48.094;7.970;2023-07-08T11:17:23;2.97;;;2.10;;
2408;SDS011;8463;48.094;7.970;2023-07-08T11:22:58;2.30;;;1.73;;
2408;SDS011;8463;48.094;7.970;2023-07-08T11:25:45;1.90;;;1.50;;
2408;SDS011;8463;48.094;7.970;2023-07-08T11:28:17;1.87;;;1.73;;
2408;SDS011;8463;48.094;7.970;2023-07-08T11:30:46;3.43;;;1.73;;
2408;SDS011;8463;48.094;7.970;2023-07-08T11:33:15;1.90;;;1.77;;
2408;SDS011;8463;48.094;7.970;2023-07-08T11:35:53;2.27;;;2.07;;
2408;SDS011;8463;48.094;7.970;2023-07-08T11:38:24;2.30;;;1.90;;
2408;SDS011;8463;48.094;7.970;2023-07-08T11:40:59;2.20;;;1.87;;
2408;SDS011;8463;48.094;7.970;2023-07-08T11:43:42;3.23;;;2.03;;
2408;SDS011;8463;48.094;7.970;2023-07-08T11:46:21;2.20;;;1.80;;
2408;SDS011;8463;48.094;7.970;2023-07-08T11:48:51;3.13;;;1.80;;
2408;SDS011;8463;48.094;7.970;2023-07-08T11:51:19;2.40;;;2.00;;
2408;SDS011;8463;48.094;7.970;2023-07-08T11:56:46;4.03;;;1.80;;
2408;SDS011;8463;48.094;7.970;2023-07-08T11:59:23;2.20;;;1.90;;
2408;SDS011;8463;48.094;7.970;2023-07-08T12:01:53;3.03;;;1.90;;
2408;SDS011;8463;48.094;7.970;2023-07-08T12:04:31;4.20;;;2.10;;
2408;SDS011;8463;48.094;7.970;2023-07-08T12:07:14;2.23;;;2.03;;
2408;SDS011;8463;48.094;7.970;2023-07-08T12:09:50;5.43;;;2.17;;
2408;SDS011;8463;48.094;7.970;2023-07-08T12:12:24;2.67;;;2.20;;
2408;SDS011;8463;48.094;7.970;2023-07-08T12:14:58;5.70;;;2.63;;
2408;SDS011;8463;48.094;7.970;2023-07-08T12:17:43;3.70;;;2.30;;
2408;SDS011;8463;48.094;7.970;2023-07-08T12:20:23;2.30;;;1.60;;
2408;SDS011;8463;48.094;7.970;2023-07-08T12:22:57;3.80;;;2.77;;
2408;SDS011;8463;48.094;7.970;2023-07-08T12:25:26;2.40;;;2.00;;
2408;SDS011;8463;48.094;7.970;2023-07-08T12:28:04;2.50;;;2.00;;
2408;SDS011;8463;48.094;7.970;2023-07-08T12:30:31;2.40;;;2.13;;
2408;SDS011;8463;48.094;7.970;2023-07-08T12:32:58;2.60;;;1.57;;
2408;SDS011;8463;48.094;7.970;2023-07-08T12:35:29;2.50;;;2.27;;
2408;SDS011;8463;48.094;7.970;2023-07-08T12:38:09;3.70;;;2.40;;
2408;SDS011;8463;48.094;7.970;2023-07-08T12:40:45;2.33;;;2.13;;
2408;SDS011;8463;48.094;7.970;2023-07-08T12:43:11;2.50;;;2.30;;
2408;SDS011;8463;48.094;7.970;2023-07-08T12:45:37;2.80;;;2.60;;
2408;SDS011;8463;48.094;7.970;2023-07-08T12:48:05;2.00;;;1.80;;
2408;SDS011;8463;48.094;7.970;2023-07-08T12:50:30;3.03;;;2.60;;
2408;SDS011;8463;48.094;7.970;2023-07-08T12:52:56;3.23;;;2.10;;
2408;SDS011;8463;48.094;7.970;2023-07-08T12:55:22;2.37;;;1.63;;
2408;SDS011;8463;48.094;7.970;2023-07-08T12:57:50;2.60;;;1.63;;
2408;SDS011;8463;48.094;7.970;2023-07-08T13:02:58;3.67;;;2.03;;
2408;SDS011;8463;48.094;7.970;2023-07-08T13:05:32;2.40;;;1.83;;
2408;SDS011;8463;48.094;7.970;2023-07-08T13:07:58;4.20;;;1.67;;
2408;SDS011;8463;48.094;7.970;2023-07-08T13:10:25;2.30;;;2.10;;
2408;SDS011;8463;48.094;7.970;2023-07-08T13:12:55;2.67;;;2.00;;
2408;SDS011;8463;48.094;7.970;2023-07-08T13:15:24;3.37;;;2.40;;
2408;SDS011;8463;48.094;7.970;2023-07-08T13:17:58;2.87;;;2.10;;
2408;SDS011;8463;48.094;7.970;2023-07-08T13:20:24;3.27;;;2.47;;
2408;SDS011;8463;48.094;7.970;2023-07-08T13:22:53;3.00;;;2.40;;
2408;SDS011;8463;48.094;7.970;2023-07-08T13:25:25;3.17;;;2.10;;
2408;SDS011;8463;48.094;7.970;2023-07-08T13:27:58;2.30;;;1.90;;
2408;SDS011;8463;48.094;7.970;2023-07-08T13:30:27;2.90;;;2.43;;
2408;SDS011;8463;48.094;7.970;2023-07-08T13:32:56;3.43;;;2.37;;
2408;SDS011;8463;48.094;7.970;2023-07-08T13:35:28;2.43;;;2.23;;
2408;SDS011;8463;48.094;7.970;2023-07-08T13:38:04;2.60;;;2.40;;
2408;SDS011;8463;48.094;7.970;2023-07-08T13:40:30;2.57;;;1.90;;
2408;SDS011;8463;48.094;7.970;2023-07-08T13:42:56;3.17;;;2.57;;
2408;SDS011;8463;48.094;7.970;2023-07-08T13:45:24;4.50;;;2.30;;
2408;SDS011;8463;48.094;7.970;2023-07-08T13:50:49;2.93;;;2.10;;
2408;SDS011;8463;48.094;7.970;2023-07-08T13:53:38;4.30;;;2.33;;
2408;SDS011;8463;48.094;7.970;2023-07-08T13:56:21;2.63;;;2.20;;
2408;SDS011;8463;48.094;7.970;2023-07-08T13:58:51;3.63;;;2.47;;
2408;SDS011;8463;48.094;7.970;2023-07-08T14:01:25;3.17;;;2.20;;
2408;SDS011;8463;48.094;7.970;2023-07-08T14:03:56;2.70;;;1.90;;
2408;SDS011;8463;48.094;7.970;2023-07-08T14:06:23;2.70;;;2.30;;
2408;SDS011;8463;48.094;7.970;2023-07-08T14:09:01;4.10;;;2.43;;
2408;SDS011;8463;48.094;7.970;2023-07-08T14:11:37;5.13;;;2.30;;
2408;SDS011;8463;48.094;7.970;2023-07-08T14:14:02;2.70;;;2.47;;
2408;SDS011;8463;48.094;7.970;2023-07-08T14:16:29;4.90;;;2.27;;
2408;SDS011;8463;48.094;7.970;2023-07-08T14:18:57;4.67;;;3.13;;
2408;SDS011;8463;48.094;7.970;2023-07-08T14:21:24;4.47;;;2.80;;
2408;SDS011;8463;48.094;7.970;2023-07-08T14:23:57;4.23;;;2.87;;
2408;SDS011;8463;48.094;7.970;2023-07-08T14:26:24;3.93;;;2.90;;
2408;SDS011;8463;48.094;7.970;2023-07-08T14:28:49;3.17;;;2.50;;
2408;SDS011;8463;48.094;7.970;2023-07-08T14:31:17;3.33;;;2.57;;
2408;SDS011;8463;48.094;7.970;2023-07-08T14:33:57;3.57;;;2.60;;
2408;SDS011;8463;48.094;7.970;2023-07-08T14:36:28;2.70;;;2.43;;
2408;SDS011;8463;48.094;7.970;2023-07-08T14:38:56;4.07;;;2.90;;
2408;SDS011;8463;48.094;7.970;2023-07-08T14:41:24;3.60;;;2.73;;
2408;SDS011;8463;48.094;7.970;2023-07-08T14:43:50;2.70;;;2.50;;
2408;SDS011;8463;48.094;7.970;2023-07-08T14:46:16;2.77;;;2.17;;
2408;SDS011;8463;48.094;7.970;2023-07-08T14:48:42;8.37;;;3.40;;
2408;SDS011;8463;48.094;7.970;2023-07-08T14:51:08;4.63;;;2.67;;
2408;SDS011;8463;48.094;7.970;2023-07-08T14:53:39;3.00;;;2.40;;
2408;SDS011;8463;48.094;7.970;2023-07-08T14:56:11;4.37;;;2.90;;
2408;SDS011;8463;48.094;7.970;2023-07-08T14:58:41;2.97;;;2.67;;
2408;SDS011;8463;48.094;7.970;2023-07-08T15:01:11;3.60;;;2.70;;
2408;SDS011;8463;48.094;7.970;2023-07-08T15:03:45;3.00;;;2.07;;
2408;SDS011;8463;48.094;7.970;2023-07-08T15:06:13;3.00;;;2.70;;
2408;SDS011;8463;48.094;7.970;2023-07-08T15:08:41;3.90;;;2.93;;
2408;SDS011;8463;48.094;7.970;2023-07-08T15:11:10;3.83;;;2.80;;
2408;SDS011;8463;48.094;7.970;2023-07-08T15:13:37;5.73;;;3.37;;
2408;SDS011;8463;48.094;7.970;2023-07-08T15:16:13;4.27;;;3.10;;
2408;SDS011;8463;48.094;7.970;2023-07-08T15:18:43;3.87;;;2.90;;
2408;SDS011;8463;48.094;7.970;2023-07-08T15:21:10;4.10;;;3.07;;
2408;SDS011;8463;48.094;7.970;2023-07-08T15:23:37;3.13;;;2.50;;
2408;SDS011;8463;48.094;7.970;2023-07-08T15:26:02;3.13;;;2.83;;
2408;SDS011;8463;48.094;7.970;2023-07-08T15:31:04;3.50;;;3.00;;
2408;SDS011;8463;48.094;7.970;2023-07-08T15:33:31;3.37;;;2.80;;
2408;SDS011;8463;48.094;7.970;2023-07-08T15:35:57;5.00;;;3.00;;
2408;SDS011;8463;48.094;7.970;2023-07-08T15:38:25;3.40;;;3.00;;
2408;SDS011;8463;48.094;7.970;2023-07-08T15:40:50;4.20;;;2.67;;
2408;SDS011;8463;48.094;7.970;2023-07-08T15:43:17;3.83;;;2.73;;
2408;SDS011;8463;48.094;7.970;2023-07-08T15:45:43;4.77;;;3.30;;
2408;SDS011;8463;48.094;7.970;2023-07-08T15:48:15;3.83;;;3.10;;
2408;SDS011;8463;48.094;7.970;2023-07-08T15:50:42;4.50;;;3.17;;
2408;SDS011;8463;48.094;7.970;2023-07-08T15:53:09;2.90;;;2.70;;
2408;SDS011;8463;48.094;7.970;2023-07-08T15:55:36;5.20;;;3.17;;
2408;SDS011;8463;48.094;7.970;2023-07-08T15:58:05;2.73;;;2.53;;
2408;SDS011;8463;48.094;7.970;2023-07-08T16:00:48;4.10;;;2.70;;
2408;SDS011;8463;48.094;7.970;2023-07-08T16:03:35;6.30;;;3.00;;
2408;SDS011;8463;48.094;7.970;2023-07-08T16:06:02;3.70;;;3.40;;
2408;SDS011;8463;48.094;7.970;2023-07-08T16:08:27;3.23;;;2.77;;
2408;SDS011;8463;48.094;7.970;2023-07-08T16:13:42;5.93;;;2.97;;
2408;SDS011;8463;48.094;7.970;2023-07-08T16:16:09;3.60;;;2.83;;
2408;SDS011;8463;48.094;7.970;2023-07-08T16:18:39;4.80;;;3.57;;
2408;SDS011;8463;48.094;7.970;2023-07-08T16:21:07;3.00;;;2.70;;
2408;SDS011;8463;48.094;7.970;2023-07-08T16:23:33;4.13;;;3.00;;
2408;SDS011;8463;48.094;7.970;2023-07-08T16:26:00;3.30;;;3.00;;
2408;SDS011;8463;48.094;7.970;2023-07-08T16:31:26;5.03;;;2.90;;
2408;SDS011;8463;48.094;7.970;2023-07-08T16:33:52;4.00;;;2.97;;
2408;SDS011;8463;48.094;7.970;2023-07-08T16:36:29;5.80;;;3.00;;
2408;SDS011;8463;48.094;7.970;2023-07-08T16:38:55;3.60;;;2.37;;
2408;SDS011;8463;48.094;7.970;2023-07-08T16:41:22;4.03;;;3.43;;
2408;SDS011;8463;48.094;7.970;2023-07-08T16:43:51;3.50;;;2.73;;
2408;SDS011;8463;48.094;7.970;2023-07-08T16:46:21;3.70;;;2.20;;
2408;SDS011;8463;48.094;7.970;2023-07-08T16:48:50;3.00;;;2.80;;
2408;SDS011;8463;48.094;7.970;2023-07-08T16:51:17;3.60;;;2.90;;
2408;SDS011;8463;48.094;7.970;2023-07-08T16:53:49;3.40;;;3.10;;